Latest Weather Observations for Kalumburu

IDD60801

Issued at 10:31 am CST Saturday 10 December 2016 (issued every 30 minutes, with the page automatically refreshed every 10 minutes)

About weather observations | Map of weather stations | Latest weather observations for NT | Other Formats
Station Details ID: 001019 Name: KALUMBURU Lat: -14.30 Lon: 126.65 Height: 23.0 m
Data from the previous 72 hours. | See also: Recent months at Kalumburu
Date/Time
CST
Temp
°C
App
Temp
°C
Dew
Point
°C
Rel
Hum
%
Delta-T
°C
Wind Press
QNH
hPa
Press
MSL
hPa
Rain since
9am
mm
Dir  Spd
km/h
Gust
km/h
Spd
kts
Gust
kts
10/10:00am 28.9 31.0 22.4 68 4.4 S 15 24 8 13 1011.0 1010.8 -
10/09:30am 28.9 31.5 22.6 69 4.3 SSE 13 24 7 13 1010.3 1010.1 -
10/09:00am 28.9 32.1 23.1 71 4.0 SSE 11 17 6 9 1010.5 1010.3 -
10/08:30am 28.7 31.4 22.9 71 4.0 S 13 19 7 10 1010.4 1010.2 -
10/08:00am 28.7 32.3 23.1 71 3.8 S 9 15 5 8 1010.3 1010.1 -
10/07:30am 28.6 32.2 23.1 72 3.8 SSW 9 17 5 9 1009.9 1009.7 -
10/07:00am 28.5 32.9 23.4 74 3.5 SSW 6 7 3 4 1009.4 1009.2 -
10/06:30am 28.6 33.2 24.2 77 3.1 S 7 11 4 6 1009.0 1008.8 -
10/06:00am 28.1 32.8 24.3 80 2.6 S 7 11 4 6 1008.7 1008.5 -
10/05:30am 28.1 33.9 24.5 81 2.5 SSW 2 7 1 4 1008.2 1008.0 -
10/05:00am 27.7 34.1 24.9 85 2.0 CALM 0 0 0 0 1008.0 1007.8 -
10/04:30am 27.5 33.9 24.9 86 1.8 CALM 0 0 0 0 1008.1 1007.9 -
10/04:00am 27.1 33.2 24.4 85 1.9 CALM 0 0 0 0 1007.7 1007.5 -
10/03:30am 27.1 33.2 24.4 85 1.9 CALM 0 0 0 0 1007.4 1007.2 -
10/03:00am 27.1 32.7 23.6 81 2.4 CALM 0 0 0 0 1007.4 1007.2 -
10/02:30am 26.9 32.6 23.8 83 2.1 CALM 0 0 0 0 1007.5 1007.3 -
10/02:00am 26.8 32.5 23.7 83 2.1 CALM 0 0 0 0 1007.6 1007.4 -
10/01:30am 26.9 32.0 22.7 78 2.8 CALM 0 0 0 0 1007.8 1007.6 -
10/01:00am 27.6 31.6 22.8 75 3.3 SSW 6 7 3 4 1007.8 1007.6 -
10/12:30am 27.7 32.8 23.3 77 3.0 NNW 2 7 1 4 1008.1 1007.9 -
 
Date/Time
CST
Temp
°C
App
Temp
°C
Dew
Point
°C
Rel
Hum
%
Delta-T
°C
Wind Press
QNH
hPa
Press
MSL
hPa
Rain since
9am
mm
Dir  Spd
km/h
Gust
km/h
Spd
kts
Gust
kts
09/11:30pm 28.0 34.0 24.2 80 2.6 CALM 0 0 0 0 1008.9 1008.7 -
09/11:00pm 28.8 34.3 24.1 76 3.3 W 2 6 1 3 1008.8 1008.6 -
09/10:30pm 29.1 33.5 23.5 72 3.9 NW 6 7 3 4 1008.5 1008.3 -
09/10:00pm 29.7 34.4 23.9 71 4.0 NW 6 9 3 5 1008.5 1008.3 -
09/09:30pm 30.2 34.8 24.1 70 4.2 N 7 9 4 5 1008.2 1008.0 -
09/09:00pm 30.7 35.1 24.4 69 4.4 N 9 15 5 8 1007.6 1007.4 -
09/08:30pm 31.2 34.6 24.1 66 5.0 NNW 13 20 7 11 1007.1 1006.9 -
09/08:00pm 31.3 34.6 23.9 64 5.1 NNW 13 20 7 11 1006.7 1006.5 0.0
09/07:30pm 31.6 34.3 24.2 65 5.2 NNW 17 24 9 13 1006.4 1006.2 0.0
09/07:00pm 32.0 35.0 24.6 65 5.2 N 17 26 9 14 1005.8 1005.6 0.0
09/06:30pm 32.5 34.6 23.7 59 6.1 N 19 26 10 14 1005.3 1005.1 0.0
09/06:00pm 33.8 35.4 22.9 53 7.5 N 19 26 10 14 1004.6 1004.4 0.0
09/05:30pm 34.2 34.0 19.4 41 9.8 N 19 26 10 14 1004.4 1004.2 0.0
09/05:00pm 34.4 34.7 20.7 44 9.2 N 20 28 11 15 1004.1 1003.9 0.0
09/04:30pm 34.6 37.5 25.1 57 6.8 NNW 19 30 10 16 1004.2 1004.0 0.0
09/04:00pm 34.7 35.0 19.5 40 10.1 N 17 30 9 16 1004.5 1004.3 0.0
09/03:30pm 35.7 37.9 19.6 39 10.7 NNW 7 15 4 8 1004.6 1004.4 0.0
09/03:00pm 36.2 38.2 18.7 35 11.5 WNW 6 11 3 6 1004.7 1004.5 0.0
09/02:30pm 35.6 37.2 19.1 38 10.9 NW 9 13 5 7 1005.1 1004.9 0.0
09/02:00pm 36.7 39.7 21.3 40 10.5 SW 7 13 4 7 1005.3 1005.1 0.0
09/01:30pm 35.7 38.3 20.0 39 10.5 SSE 6 9 3 5 1005.9 1005.7 0.0
09/01:00pm 35.5 37.8 19.8 39 10.5 WSW 7 11 4 6 1006.3 1006.1 0.0
09/12:30pm 35.2 37.5 20.7 42 9.8 WSW 9 15 5 8 1006.7 1006.5 0.0
09/12:00pm 35.6 38.9 21.5 44 9.6 WSW 6 13 3 7 1007.2 1007.0 0.0
09/11:30am 34.2 37.8 22.3 50 8.2 S 7 11 4 6 1007.7 1007.5 0.0
09/11:00am 33.7 37.3 23.1 54 7.3 SSE 9 15 5 8 1007.9 1007.7 0.0
09/10:30am 33.2 37.0 23.5 56 6.7 SSW 9 13 5 7 1008.4 1008.2 -
09/10:00am 32.5 36.3 23.4 58 6.3 SSW 9 13 5 7 1008.4 1008.2 -
09/09:30am 31.9 35.9 23.7 62 5.7 S 9 17 5 9 1008.6 1008.4 -
09/09:00am 31.1 35.7 24.7 68 4.5 S 9 15 5 8 1008.5 1008.3 -
09/08:30am 30.4 35.2 24.5 70 4.1 S 7 11 4 6 1008.2 1008.0 -
09/08:00am 29.7 34.8 25.0 76 3.3 S 7 11 4 6 1007.9 1007.7 -
09/07:30am 28.4 35.5 26.0 87 1.7 CALM 0 0 0 0 1007.6 1007.4 -
09/07:00am 26.5 32.8 24.7 90 1.3 CALM 0 0 0 0 1007.2 1007.0 -
09/06:30am 26.2 32.3 24.4 90 1.2 CALM 0 0 0 0 1006.6 1006.4 -
09/06:00am 26.1 32.1 24.3 90 1.2 CALM 0 0 0 0 1006.4 1006.2 -
09/05:30am 25.9 31.8 24.1 90 1.2 CALM 0 0 0 0 1006.1 1005.9 -
09/05:00am 25.7 31.4 23.7 89 1.4 CALM 0 0 0 0 1005.9 1005.7 -
09/04:30am 26.0 31.8 24.0 89 1.4 CALM 0 0 0 0 1005.8 1005.6 -
09/04:00am 26.0 31.8 24.0 89 1.4 CALM 0 0 0 0 1005.6 1005.4 5.6
09/03:30am 26.1 32.0 24.1 89 1.4 CALM 0 0 0 0 1005.6 1005.4 5.6
09/03:00am 26.0 31.8 23.9 88 1.4 CALM 0 0 0 0 1005.6 1005.4 5.6
09/02:30am 26.1 31.9 24.0 88 1.4 CALM 0 0 0 0 1005.6 1005.4 5.6
09/02:00am 26.1 31.8 23.8 87 1.6 CALM 0 0 0 0 1005.8 1005.6 5.6
09/01:30am 26.3 32.3 24.2 88 1.5 CALM 0 0 0 0 1006.2 1006.0 5.6
09/01:00am 26.3 32.3 24.2 88 1.4 CALM 0 0 0 0 1006.5 1006.3 5.6
09/12:30am 26.5 32.5 24.3 88 1.5 CALM 0 0 0 0 1006.8 1006.6 5.6
09/12:00am 26.6 32.7 24.4 88 1.5 CALM 0 0 0 0 1007.1 1006.9 5.6
 
Date/Time
CST
Temp
°C
App
Temp
°C
Dew
Point
°C
Rel
Hum
%
Delta-T
°C
Wind Press
QNH
hPa
Press
MSL
hPa
Rain since
9am
mm
Dir  Spd
km/h
Gust
km/h
Spd
kts
Gust
kts
08/11:30pm 26.5 32.5 24.2 87 1.6 CALM 0 0 0 0 1007.0 1006.8 5.6
08/11:00pm 26.6 32.4 23.9 85 1.9 CALM 0 0 0 0 1006.8 1006.6 5.6
08/10:30pm 26.8 32.8 24.3 86 1.7 CALM 0 4 0 2 1006.5 1006.3 5.6
08/10:00pm 26.8 32.9 24.5 87 1.6 CALM 0 0 0 0 1006.4 1006.2 5.6
08/09:30pm 27.0 33.0 24.3 85 1.9 CALM 0 0 0 0 1006.1 1005.9 5.6
08/09:00pm 27.1 32.9 24.0 83 2.1 CALM 0 0 0 0 1006.0 1005.8 5.6
08/08:30pm 27.4 33.0 23.6 80 2.6 CALM 0 0 0 0 1005.6 1005.4 5.6
08/08:00pm 28.3 33.8 23.4 75 3.4 CALM 0 0 0 0 1005.4 1005.2 5.6
08/07:30pm 29.4 34.5 23.4 70 4.1 NW 2 7 1 4 1005.2 1005.0 5.6
08/07:00pm 29.9 35.0 24.1 71 4.0 SW 4 7 2 4 1004.9 1004.7 5.6
08/06:30pm 29.2 35.2 24.3 75 3.4 CALM 0 0 0 0 1004.6 1004.4 5.6
08/06:00pm 29.5 35.7 24.6 75 3.4 CALM 0 2 0 1 1004.5 1004.3 5.6
08/05:30pm 29.5 34.5 23.2 69 4.3 NNE 2 7 1 4 1004.1 1003.9 5.6
08/05:00pm 28.8 34.0 22.8 70 4.1 CALM 0 0 0 0 1004.1 1003.9 5.6
08/04:30pm 27.8 32.5 22.7 74 3.5 SW 2 9 1 5 1003.8 1003.6 5.6
08/04:00pm 26.9 28.3 21.0 70 3.9 WNW 15 30 8 16 1003.6 1003.4 5.6
08/03:48pm 27.7 25.5 20.8 66 4.6 NNW 33 83 18 45 1004.5 1004.3 5.4
08/03:45pm 25.5 22.2 19.2 68 4.0 N 35 83 19 45 1004.4 1004.2 5.0
08/03:39pm 26.9 23.4 19.5 64 4.8 NNE 37 65 20 35 1004.1 1003.9 1.4
08/03:33pm 30.1 27.8 17.5 46 8.0 NNE 26 46 14 25 1003.8 1003.6 0.0
08/03:30pm 31.8 30.1 17.3 42 9.3 N 22 46 12 25 1004.0 1003.8 0.0
08/03:00pm 37.5 39.7 21.2 38 11.1 NW 11 15 6 8 1003.9 1003.7 0.0
08/02:30pm 36.3 38.4 22.5 45 9.6 NNW 15 22 8 12 1004.1 1003.9 0.0
08/02:00pm 36.1 36.5 19.9 38 10.8 NNW 17 22 9 12 1004.6 1004.4 0.0
08/01:30pm 32.8 34.1 22.3 54 7.2 N 19 28 10 15 1005.1 1004.9 0.0
08/01:00pm 36.7 38.8 20.1 38 11.1 WNW 9 17 5 9 1005.3 1005.1 0.0
08/12:30pm 36.7 40.5 22.8 44 9.7 SSE 7 13 4 7 1005.8 1005.6 0.0
08/12:00pm 35.6 39.5 23.6 50 8.4 SSW 9 13 5 7 1006.4 1006.2 0.0
08/11:30am 35.5 39.3 22.8 47 8.8 SSE 7 13 4 7 1006.8 1006.6 0.0
08/11:00am 34.6 38.9 23.6 52 7.7 SW 7 15 4 8 1007.0 1006.8 0.0
08/10:30am 33.8 37.2 24.1 57 6.8 S 13 17 7 9 1007.3 1007.1 0.0
08/10:00am 33.7 38.0 24.3 58 6.6 SSW 9 15 5 8 1007.6 1007.4 0.0
08/09:30am 32.7 36.6 23.6 58 6.3 W 9 15 5 8 1007.3 1007.1 0.0
08/09:00am 32.1 37.0 24.7 65 5.2 SW 7 11 4 6 1007.4 1007.2 0.0
08/08:30am 31.0 35.3 23.6 64 5.1 WSW 7 15 4 8 1007.6 1007.4 0.0
08/08:00am 30.3 35.5 24.2 70 4.2 SSE 4 7 2 4 1007.5 1007.3 0.0
08/07:30am 28.2 34.7 25.0 83 2.2 CALM 0 0 0 0 1007.2 1007.0 0.0
08/07:00am 26.2 32.0 23.9 87 1.6 CALM 0 0 0 0 1007.0 1006.8 0.0
08/06:30am 25.6 31.0 23.3 87 1.6 CALM 0 0 0 0 1006.7 1006.5 0.0
08/06:00am 25.6 30.7 23.3 87 1.6 ESE 2 7 1 4 1006.5 1006.3 0.0
08/05:30am 25.4 30.6 22.9 86 1.7 CALM 0 0 0 0 1006.2 1006.0 0.0
08/05:00am 25.5 30.7 22.8 85 1.8 CALM 0 0 0 0 1005.9 1005.7 0.0
08/04:30am 25.7 30.9 22.8 84 2.0 CALM 0 0 0 0 1005.9 1005.7 0.0
08/04:00am 25.8 30.9 22.7 83 2.1 CALM 0 0 0 0 1005.9 1005.7 0.0
08/03:30am 25.9 31.1 22.8 83 2.1 CALM 0 0 0 0 1006.0 1005.8 0.0
08/03:00am 26.8 30.9 23.3 81 2.4 SSW 7 9 4 5 1006.1 1005.9 0.0
08/02:30am 25.8 31.0 22.9 84 2.0 CALM 0 0 0 0 1006.3 1006.1 0.0
08/02:00am 26.0 31.1 22.7 82 2.2 CALM 0 0 0 0 1006.6 1006.4 0.0
08/01:30am 26.2 31.2 22.5 80 2.5 CALM 0 0 0 0 1007.0 1006.8 0.0
08/01:00am 26.3 31.6 23.0 82 2.2 CALM 0 0 0 0 1007.4 1007.2 0.0
08/12:30am 26.8 31.7 22.4 77 3.0 CALM 0 0 0 0 1007.6 1007.4 0.0
08/12:00am 26.8 31.6 22.2 76 3.1 CALM 0 0 0 0 1007.7 1007.5 0.0
 
Date/Time
CST
Temp
°C
App
Temp
°C
Dew
Point
°C
Rel
Hum
%
Delta-T
°C
Wind Press
QNH
hPa
Press
MSL
hPa
Rain since
9am
mm
Dir  Spd
km/h
Gust
km/h
Spd
kts
Gust
kts
07/11:30pm 27.0 31.9 22.4 76 3.1 CALM 0 0 0 0 1007.8 1007.6 0.0
07/11:00pm 27.3 32.2 22.3 74 3.4 CALM 0 0 0 0 1008.0 1007.8 0.0
07/10:30pm 27.8 31.3 21.8 70 4.0 S 6 9 3 5 1007.9 1007.7 0.0
07/10:00pm 27.8 31.5 22.3 72 3.7 SSE 6 7 3 4 1007.7 1007.5 0.0
07/09:30pm 28.3 32.2 22.5 71 3.9 SE 6 7 3 4 1007.5 1007.3 0.0
07/09:00pm 29.1 32.9 22.8 69 4.3 S 7 11 4 6 1007.3 1007.1 0.0
07/08:30pm 28.5 33.1 23.2 73 3.6 SSE 4 9 2 5 1007.1 1006.9 0.0
07/08:00pm 28.7 32.4 22.2 68 4.4 NE 6 7 3 4 1006.6 1006.4 0.0
07/07:30pm 29.3 33.6 22.0 64 4.9 SE 2 7 1 4 1006.5 1006.3 0.0
07/07:00pm 30.9 34.4 22.8 62 5.5 SSW 9 15 5 8 1005.7 1005.5 0.0
07/06:30pm 32.4 35.9 22.8 57 6.6 W 9 15 5 8 1005.2 1005.0 0.0
07/06:00pm 33.9 36.0 21.0 47 8.7 NW 11 17 6 9 1005.1 1004.9 0.0
07/05:30pm 35.2 37.0 21.1 43 9.6 WNW 13 20 7 11 1004.9 1004.7 0.0
07/05:00pm 35.8 37.5 20.1 40 10.5 NW 11 19 6 10 1004.6 1004.4 0.0
07/04:30pm 35.0 37.0 23.0 49 8.3 N 17 26 9 14 1004.7 1004.5 0.0
07/04:00pm 35.0 36.3 22.7 49 8.5 N 20 28 11 15 1005.1 1004.9 0.0
07/03:30pm 35.7 37.0 20.8 42 10.1 NNW 15 22 8 12 1005.5 1005.3 0.0
07/03:00pm 35.7 36.6 21.5 43 9.7 NNW 19 24 10 13 1005.8 1005.6 0.0
07/02:30pm 35.6 36.2 20.3 40 10.3 NNW 17 24 9 13 1006.2 1006.0 0.0
07/02:00pm 36.5 38.0 19.0 35 11.6 S 9 13 5 7 1006.5 1006.3 0.0
07/01:30pm 36.1 38.6 19.9 38 10.8 NNE 6 9 3 5 1007.0 1006.8 0.0
07/01:00pm 35.8 39.0 21.3 43 9.9 S 6 9 3 5 1007.4 1007.2 0.0
07/12:30pm 35.4 38.0 20.1 40 10.3 SSE 6 11 3 6 1007.7 1007.5 0.0

Other Formats:

Comma delimited format used in spreadsheet applications
http://www.bom.gov.au/fwo/IDD60801/IDD60801.94100.axf

JavaScript Object Notation format (JSON) in row-major order
http://www.bom.gov.au/fwo/IDD60801/IDD60801.94100.json